sensor_id;sensor_type;location;lat;lon;timestamp;temperature;humidity
11656;DHT22;5884;43.618;1.438;2023-01-31T05:46:41;3.40;99.90
11656;DHT22;5884;43.618;1.438;2023-01-31T05:49:09;3.40;99.90
11656;DHT22;5884;43.618;1.438;2023-01-31T05:51:37;3.40;99.90
11656;DHT22;5884;43.618;1.438;2023-01-31T05:54:05;3.40;99.90
11656;DHT22;5884;43.618;1.438;2023-01-31T05:56:32;3.40;99.90
11656;DHT22;5884;43.618;1.438;2023-01-31T05:59:00;3.40;99.90
11656;DHT22;5884;43.618;1.438;2023-01-31T06:01:28;3.40;99.90
11656;DHT22;5884;43.618;1.438;2023-01-31T06:03:57;3.50;99.90
11656;DHT22;5884;43.618;1.438;2023-01-31T06:06:24;3.50;99.90
11656;DHT22;5884;43.618;1.438;2023-01-31T06:08:52;3.50;99.90
11656;DHT22;5884;43.618;1.438;2023-01-31T06:11:19;3.40;99.90
11656;DHT22;5884;43.618;1.438;2023-01-31T06:13:46;3.40;99.90
11656;DHT22;5884;43.618;1.438;2023-01-31T06:16:14;3.40;99.90
11656;DHT22;5884;43.618;1.438;2023-01-31T06:18:41;3.40;99.90
11656;DHT22;5884;43.618;1.438;2023-01-31T06:21:10;3.40;99.90
11656;DHT22;5884;43.618;1.438;2023-01-31T06:23:37;3.40;99.90
11656;DHT22;5884;43.618;1.438;2023-01-31T06:26:04;3.30;99.90
11656;DHT22;5884;43.618;1.438;2023-01-31T06:28:32;3.30;99.90
11656;DHT22;5884;43.618;1.438;2023-01-31T06:31:05;3.40;99.90
11656;DHT22;5884;43.618;1.438;2023-01-31T06:33:33;3.40;99.90
11656;DHT22;5884;43.618;1.438;2023-01-31T06:36:01;3.40;99.90
11656;DHT22;5884;43.618;1.438;2023-01-31T06:38:30;3.50;99.90
11656;DHT22;5884;43.618;1.438;2023-01-31T06:40:58;3.50;99.90
11656;DHT22;5884;43.618;1.438;2023-01-31T06:43:25;3.50;99.90
11656;DHT22;5884;43.618;1.438;2023-01-31T06:45:52;3.50;99.90
11656;DHT22;5884;43.618;1.438;2023-01-31T06:48:20;3.50;99.90
11656;DHT22;5884;43.618;1.438;2023-01-31T06:50:47;3.60;99.90
11656;DHT22;5884;43.618;1.438;2023-01-31T06:53:14;3.60;99.90
11656;DHT22;5884;43.618;1.438;2023-01-31T06:55:43;3.50;99.90
11656;DHT22;5884;43.618;1.438;2023-01-31T06:58:10;3.60;99.90
11656;DHT22;5884;43.618;1.438;2023-01-31T07:00:37;3.60;99.90
11656;DHT22;5884;43.618;1.438;2023-01-31T07:03:04;3.60;99.90
11656;DHT22;5884;43.618;1.438;2023-01-31T07:05:32;3.60;99.90
11656;DHT22;5884;43.618;1.438;2023-01-31T07:07:59;3.60;99.90
11656;DHT22;5884;43.618;1.438;2023-01-31T07:10:26;3.60;99.90
11656;DHT22;5884;43.618;1.438;2023-01-31T07:12:55;3.60;99.90
11656;DHT22;5884;43.618;1.438;2023-01-31T07:15:22;3.60;99.90
11656;DHT22;5884;43.618;1.438;2023-01-31T07:17:49;3.70;99.90
11656;DHT22;5884;43.618;1.438;2023-01-31T07:20:16;3.70;99.90
11656;DHT22;5884;43.618;1.438;2023-01-31T07:22:44;3.70;99.90
11656;DHT22;5884;43.618;1.438;2023-01-31T07:25:11;3.80;99.90
11656;DHT22;5884;43.618;1.438;2023-01-31T07:27:38;3.80;99.90
11656;DHT22;5884;43.618;1.438;2023-01-31T07:30:08;3.80;99.90
11656;DHT22;5884;43.618;1.438;2023-01-31T07:32:36;3.80;99.90
11656;DHT22;5884;43.618;1.438;2023-01-31T07:35:05;3.90;99.90
11656;DHT22;5884;43.618;1.438;2023-01-31T07:37:33;3.90;99.90
11656;DHT22;5884;43.618;1.438;2023-01-31T07:40:00;3.90;99.90
11656;DHT22;5884;43.618;1.438;2023-01-31T07:42:27;3.90;99.90
11656;DHT22;5884;43.618;1.438;2023-01-31T07:44:54;4.00;99.90
11656;DHT22;5884;43.618;1.438;2023-01-31T07:47:23;4.00;99.90
11656;DHT22;5884;43.618;1.438;2023-01-31T07:49:50;4.00;99.90
11656;DHT22;5884;43.618;1.438;2023-01-31T07:52:18;4.00;99.90
11656;DHT22;5884;43.618;1.438;2023-01-31T07:54:45;4.10;99.90
11656;DHT22;5884;43.618;1.438;2023-01-31T07:57:12;4.10;99.90
11656;DHT22;5884;43.618;1.438;2023-01-31T07:59:42;4.20;99.90
11656;DHT22;5884;43.618;1.438;2023-01-31T08:02:11;4.20;99.90
11656;DHT22;5884;43.618;1.438;2023-01-31T08:04:58;4.20;99.90
11656;DHT22;5884;43.618;1.438;2023-01-31T08:07:25;4.30;99.90
11656;DHT22;5884;43.618;1.438;2023-01-31T08:09:53;4.30;99.90
11656;DHT22;5884;43.618;1.438;2023-01-31T08:12:21;4.30;99.90
11656;DHT22;5884;43.618;1.438;2023-01-31T08:14:48;4.40;99.90
11656;DHT22;5884;43.618;1.438;2023-01-31T08:17:15;4.40;99.90
11656;DHT22;5884;43.618;1.438;2023-01-31T08:19:43;4.40;99.90
11656;DHT22;5884;43.618;1.438;2023-01-31T08:22:11;4.50;99.90
11656;DHT22;5884;43.618;1.438;2023-01-31T08:24:38;4.50;99.90
11656;DHT22;5884;43.618;1.438;2023-01-31T08:27:06;4.50;99.90
11656;DHT22;5884;43.618;1.438;2023-01-31T08:29:33;4.50;99.90
11656;DHT22;5884;43.618;1.438;2023-01-31T08:32:00;4.50;99.90
11656;DHT22;5884;43.618;1.438;2023-01-31T08:34:28;4.60;99.90
11656;DHT22;5884;43.618;1.438;2023-01-31T08:36:55;4.60;99.90
11656;DHT22;5884;43.618;1.438;2023-01-31T08:39:23;4.70;99.90
11656;DHT22;5884;43.618;1.438;2023-01-31T08:41:51;4.70;99.90
11656;DHT22;5884;43.618;1.438;2023-01-31T08:44:18;4.70;99.90
11656;DHT22;5884;43.618;1.438;2023-01-31T08:46:45;4.70;99.90
11656;DHT22;5884;43.618;1.438;2023-01-31T08:49:13;4.70;99.90
11656;DHT22;5884;43.618;1.438;2023-01-31T08:51:40;4.70;99.90
11656;DHT22;5884;43.618;1.438;2023-01-31T08:54:07;4.70;99.90
11656;DHT22;5884;43.618;1.438;2023-01-31T08:56:38;4.70;99.90
11656;DHT22;5884;43.618;1.438;2023-01-31T08:59:05;4.80;99.90
11656;DHT22;5884;43.618;1.438;2023-01-31T09:01:33;4.90;99.90
11656;DHT22;5884;43.618;1.438;2023-01-31T09:04:00;4.90;99.90
11656;DHT22;5884;43.618;1.438;2023-01-31T09:06:28;5.10;99.90
11656;DHT22;5884;43.618;1.438;2023-01-31T09:08:56;5.10;99.90
11656;DHT22;5884;43.618;1.438;2023-01-31T09:11:26;5.20;99.90
11656;DHT22;5884;43.618;1.438;2023-01-31T09:13:56;5.30;99.90
11656;DHT22;5884;43.618;1.438;2023-01-31T09:16:23;5.50;99.90
11656;DHT22;5884;43.618;1.438;2023-01-31T09:18:52;5.60;99.90
11656;DHT22;5884;43.618;1.438;2023-01-31T09:21:21;5.80;99.90
11656;DHT22;5884;43.618;1.438;2023-01-31T09:23:54;6.00;99.90
11656;DHT22;5884;43.618;1.438;2023-01-31T09:26:22;6.10;99.90
11656;DHT22;5884;43.618;1.438;2023-01-31T09:28:50;6.00;99.90
11656;DHT22;5884;43.618;1.438;2023-01-31T09:31:19;6.00;99.90
11656;DHT22;5884;43.618;1.438;2023-01-31T09:33:47;5.90;99.90
11656;DHT22;5884;43.618;1.438;2023-01-31T09:36:16;6.00;99.90
11656;DHT22;5884;43.618;1.438;2023-01-31T09:38:45;6.10;99.90
11656;DHT22;5884;43.618;1.438;2023-01-31T09:41:18;6.30;99.90
11656;DHT22;5884;43.618;1.438;2023-01-31T09:43:53;6.40;99.90
11656;DHT22;5884;43.618;1.438;2023-01-31T09:46:25;6.50;99.90
11656;DHT22;5884;43.618;1.438;2023-01-31T09:48:55;6.60;99.90
11656;DHT22;5884;43.618;1.438;2023-01-31T09:51:24;6.70;99.90
11656;DHT22;5884;43.618;1.438;2023-01-31T09:53:52;6.70;99.90
11656;DHT22;5884;43.618;1.438;2023-01-31T09:56:27;6.70;99.90
11656;DHT22;5884;43.618;1.438;2023-01-31T09:59:06;6.80;99.90
11656;DHT22;5884;43.618;1.438;2023-01-31T10:01:46;6.90;99.90
11656;DHT22;5884;43.618;1.438;2023-01-31T10:04:23;7.00;99.90
11656;DHT22;5884;43.618;1.438;2023-01-31T10:07:03;6.90;99.90
11656;DHT22;5884;43.618;1.438;2023-01-31T10:09:35;6.90;99.90
11656;DHT22;5884;43.618;1.438;2023-01-31T10:12:10;6.80;99.90
11656;DHT22;5884;43.618;1.438;2023-01-31T10:14:44;6.70;99.90
11656;DHT22;5884;43.618;1.438;2023-01-31T10:17:18;6.80;99.90
11656;DHT22;5884;43.618;1.438;2023-01-31T10:19:53;7.00;99.90
11656;DHT22;5884;43.618;1.438;2023-01-31T10:22:30;7.20;99.90
11656;DHT22;5884;43.618;1.438;2023-01-31T10:25:05;7.40;99.90
11656;DHT22;5884;43.618;1.438;2023-01-31T10:27:43;7.50;99.90
11656;DHT22;5884;43.618;1.438;2023-01-31T10:30:16;7.60;99.90
11656;DHT22;5884;43.618;1.438;2023-01-31T10:32:49;7.40;99.90
11656;DHT22;5884;43.618;1.438;2023-01-31T10:35:22;7.20;99.90
11656;DHT22;5884;43.618;1.438;2023-01-31T10:37:54;7.30;99.90
11656;DHT22;5884;43.618;1.438;2023-01-31T10:40:31;7.30;99.90
11656;DHT22;5884;43.618;1.438;2023-01-31T10:43:07;7.40;99.90
11656;DHT22;5884;43.618;1.438;2023-01-31T10:45:38;7.40;99.90
11656;DHT22;5884;43.618;1.438;2023-01-31T10:48:13;7.40;99.90
11656;DHT22;5884;43.618;1.438;2023-01-31T10:50:54;7.50;99.90
11656;DHT22;5884;43.618;1.438;2023-01-31T10:53:42;7.50;99.90
11656;DHT22;5884;43.618;1.438;2023-01-31T10:56:21;7.60;99.90
11656;DHT22;5884;43.618;1.438;2023-01-31T10:58:53;7.60;99.90
11656;DHT22;5884;43.618;1.438;2023-01-31T11:01:22;7.60;99.90
11656;DHT22;5884;43.618;1.438;2023-01-31T11:03:52;7.70;99.90
11656;DHT22;5884;43.618;1.438;2023-01-31T11:06:21;7.80;99.90
11656;DHT22;5884;43.618;1.438;2023-01-31T11:08:52;7.90;99.90
11656;DHT22;5884;43.618;1.438;2023-01-31T11:11:22;8.00;99.90
11656;DHT22;5884;43.618;1.438;2023-01-31T11:13:57;8.10;99.90
11656;DHT22;5884;43.618;1.438;2023-01-31T11:16:26;8.20;99.90
11656;DHT22;5884;43.618;1.438;2023-01-31T11:18:57;8.20;99.90
11656;DHT22;5884;43.618;1.438;2023-01-31T11:21:27;8.20;99.90
11656;DHT22;5884;43.618;1.438;2023-01-31T11:24:01;8.20;99.90
11656;DHT22;5884;43.618;1.438;2023-01-31T11:26:31;8.30;99.90
11656;DHT22;5884;43.618;1.438;2023-01-31T11:29:00;8.40;99.90
11656;DHT22;5884;43.618;1.438;2023-01-31T11:31:30;8.60;99.90
11656;DHT22;5884;43.618;1.438;2023-01-31T11:34:01;8.90;99.90
11656;DHT22;5884;43.618;1.438;2023-01-31T11:36:32;9.10;99.90
11656;DHT22;5884;43.618;1.438;2023-01-31T11:39:24;9.30;99.90
11656;DHT22;5884;43.618;1.438;2023-01-31T11:41:53;9.30;99.90
11656;DHT22;5884;43.618;1.438;2023-01-31T11:44:22;9.30;99.90
11656;DHT22;5884;43.618;1.438;2023-01-31T11:46:52;9.40;99.90
11656;DHT22;5884;43.618;1.438;2023-01-31T11:49:27;9.60;99.90
11656;DHT22;5884;43.618;1.438;2023-01-31T11:51:57;9.50;99.90
11656;DHT22;5884;43.618;1.438;2023-01-31T11:54:28;9.60;99.90
11656;DHT22;5884;43.618;1.438;2023-01-31T11:56:57;9.70;99.90
11656;DHT22;5884;43.618;1.438;2023-01-31T11:59:28;9.70;99.90
11656;DHT22;5884;43.618;1.438;2023-01-31T12:01:57;9.80;99.90
11656;DHT22;5884;43.618;1.438;2023-01-31T12:04:30;9.70;99.90
11656;DHT22;5884;43.618;1.438;2023-01-31T12:07:02;9.50;99.90
11656;DHT22;5884;43.618;1.438;2023-01-31T12:09:40;9.40;99.90
11656;DHT22;5884;43.618;1.438;2023-01-31T12:12:27;9.40;99.90
11656;DHT22;5884;43.618;1.438;2023-01-31T12:15:02;9.40;99.90
11656;DHT22;5884;43.618;1.438;2023-01-31T12:17:33;9.20;99.90
11656;DHT22;5884;43.618;1.438;2023-01-31T12:20:13;9.20;99.90
11656;DHT22;5884;43.618;1.438;2023-01-31T12:22:50;9.20;99.90
11656;DHT22;5884;43.618;1.438;2023-01-31T12:25:32;9.30;99.90
11656;DHT22;5884;43.618;1.438;2023-01-31T12:28:18;9.20;99.90
11656;DHT22;5884;43.618;1.438;2023-01-31T12:31:10;9.20;99.90
11656;DHT22;5884;43.618;1.438;2023-01-31T12:34:20;9.30;99.90
11656;DHT22;5884;43.618;1.438;2023-01-31T12:37:06;9.40;99.90
11656;DHT22;5884;43.618;1.438;2023-01-31T12:39:52;9.40;99.90
11656;DHT22;5884;43.618;1.438;2023-01-31T12:42:38;9.40;99.90
11656;DHT22;5884;43.618;1.438;2023-01-31T12:45:26;9.40;99.90
11656;DHT22;5884;43.618;1.438;2023-01-31T12:48:25;9.50;99.90
11656;DHT22;5884;43.618;1.438;2023-01-31T12:51:06;9.60;99.90
11656;DHT22;5884;43.618;1.438;2023-01-31T12:53:53;9.70;99.90
11656;DHT22;5884;43.618;1.438;2023-01-31T12:56:39;9.70;99.90
11656;DHT22;5884;43.618;1.438;2023-01-31T12:59:25;9.40;99.90
11656;DHT22;5884;43.618;1.438;2023-01-31T13:02:12;9.40;99.90
11656;DHT22;5884;43.618;1.438;2023-01-31T13:04:50;9.40;99.90
11656;DHT22;5884;43.618;1.438;2023-01-31T13:07:29;9.20;99.90
11656;DHT22;5884;43.618;1.438;2023-01-31T13:10:05;9.40;99.90
11656;DHT22;5884;43.618;1.438;2023-01-31T13:12:36;9.50;99.90
11656;DHT22;5884;43.618;1.438;2023-01-31T13:15:13;9.70;99.90
11656;DHT22;5884;43.618;1.438;2023-01-31T13:17:42;9.80;99.90
11656;DHT22;5884;43.618;1.438;2023-01-31T13:20:27;9.90;99.90
11656;DHT22;5884;43.618;1.438;2023-01-31T13:22:59;9.90;99.90
11656;DHT22;5884;43.618;1.438;2023-01-31T13:25:36;9.80;99.90
11656;DHT22;5884;43.618;1.438;2023-01-31T13:28:12;9.70;99.90
11656;DHT22;5884;43.618;1.438;2023-01-31T13:30:47;9.50;99.90
11656;DHT22;5884;43.618;1.438;2023-01-31T13:33:25;9.60;99.90
11656;DHT22;5884;43.618;1.438;2023-01-31T13:36:05;9.60;99.90
11656;DHT22;5884;43.618;1.438;2023-01-31T13:38:51;9.70;99.90
11656;DHT22;5884;43.618;1.438;2023-01-31T13:41:27;9.80;99.90
11656;DHT22;5884;43.618;1.438;2023-01-31T13:43:57;9.90;99.90
11656;DHT22;5884;43.618;1.438;2023-01-31T13:46:29;10.00;99.90
11656;DHT22;5884;43.618;1.438;2023-01-31T13:49:02;10.10;99.90
11656;DHT22;5884;43.618;1.438;2023-01-31T13:51:35;10.20;99.90
11656;DHT22;5884;43.618;1.438;2023-01-31T13:54:15;10.60;99.90
11656;DHT22;5884;43.618;1.438;2023-01-31T13:56:49;10.70;99.90
11656;DHT22;5884;43.618;1.438;2023-01-31T13:59:21;10.60;99.90
11656;DHT22;5884;43.618;1.438;2023-01-31T14:01:51;10.60;99.90
11656;DHT22;5884;43.618;1.438;2023-01-31T14:04:33;10.50;99.90
11656;DHT22;5884;43.618;1.438;2023-01-31T14:07:23;10.40;99.90
11656;DHT22;5884;43.618;1.438;2023-01-31T14:13:21;10.50;99.90
11656;DHT22;5884;43.618;1.438;2023-01-31T14:15:55;10.40;99.90
11656;DHT22;5884;43.618;1.438;2023-01-31T14:18:37;10.40;99.90
11656;DHT22;5884;43.618;1.438;2023-01-31T14:27:41;10.20;99.90
11656;DHT22;5884;43.618;1.438;2023-01-31T14:30:30;10.00;99.90
11656;DHT22;5884;43.618;1.438;2023-01-31T14:39:38;9.70;99.90
11656;DHT22;5884;43.618;1.438;2023-01-31T14:42:34;9.70;99.90
11656;DHT22;5884;43.618;1.438;2023-01-31T14:45:38;9.80;99.90
11656;DHT22;5884;43.618;1.438;2023-01-31T14:48:26;9.80;99.90
11656;DHT22;5884;43.618;1.438;2023-01-31T14:51:20;9.90;99.90
11656;DHT22;5884;43.618;1.438;2023-01-31T14:54:09;10.00;99.90
11656;DHT22;5884;43.618;1.438;2023-01-31T14:56:54;10.10;99.90
11656;DHT22;5884;43.618;1.438;2023-01-31T14:59:36;10.10;99.90
11656;DHT22;5884;43.618;1.438;2023-01-31T15:02:34;10.20;99.90
11656;DHT22;5884;43.618;1.438;2023-01-31T15:05:16;10.20;99.90
11656;DHT22;5884;43.618;1.438;2023-01-31T15:08:04;10.20;99.90
11656;DHT22;5884;43.618;1.438;2023-01-31T15:10:55;10.10;99.90
11656;DHT22;5884;43.618;1.438;2023-01-31T15:13:41;10.00;99.90
11656;DHT22;5884;43.618;1.438;2023-01-31T15:16:23;9.90;99.90
11656;DHT22;5884;43.618;1.438;2023-01-31T15:18:58;9.90;99.90
11656;DHT22;5884;43.618;1.438;2023-01-31T15:21:29;10.00;99.90
11656;DHT22;5884;43.618;1.438;2023-01-31T15:23:58;9.90;99.90
11656;DHT22;5884;43.618;1.438;2023-01-31T15:26:28;9.90;99.90
11656;DHT22;5884;43.618;1.438;2023-01-31T15:28:59;9.90;99.90
11656;DHT22;5884;43.618;1.438;2023-01-31T15:31:31;9.90;99.90
11656;DHT22;5884;43.618;1.438;2023-01-31T15:34:11;9.90;99.90
11656;DHT22;5884;43.618;1.438;2023-01-31T15:36:43;9.90;99.90
11656;DHT22;5884;43.618;1.438;2023-01-31T15:39:20;10.00;99.90
11656;DHT22;5884;43.618;1.438;2023-01-31T15:41:49;9.90;99.90
11656;DHT22;5884;43.618;1.438;2023-01-31T15:44:18;9.90;99.90
11656;DHT22;5884;43.618;1.438;2023-01-31T15:46:48;9.90;99.90
11656;DHT22;5884;43.618;1.438;2023-01-31T15:49:26;9.90;99.90
11656;DHT22;5884;43.618;1.438;2023-01-31T15:52:10;9.80;99.90
11656;DHT22;5884;43.618;1.438;2023-01-31T15:54:53;9.90;99.90
11656;DHT22;5884;43.618;1.438;2023-01-31T15:57:22;9.80;99.90
11656;DHT22;5884;43.618;1.438;2023-01-31T15:59:53;9.70;99.90
11656;DHT22;5884;43.618;1.438;2023-01-31T16:02:25;9.70;99.90
11656;DHT22;5884;43.618;1.438;2023-01-31T16:04:55;9.70;99.90
11656;DHT22;5884;43.618;1.438;2023-01-31T16:07:25;9.60;99.90
11656;DHT22;5884;43.618;1.438;2023-01-31T16:09:56;9.60;99.90
11656;DHT22;5884;43.618;1.438;2023-01-31T16:12:27;9.60;99.90
11656;DHT22;5884;43.618;1.438;2023-01-31T16:15:02;9.60;99.90
11656;DHT22;5884;43.618;1.438;2023-01-31T16:17:31;9.60;99.90
11656;DHT22;5884;43.618;1.438;2023-01-31T16:20:00;9.60;99.90
11656;DHT22;5884;43.618;1.438;2023-01-31T16:22:29;9.60;99.90
11656;DHT22;5884;43.618;1.438;2023-01-31T16:24:58;9.60;99.90
11656;DHT22;5884;43.618;1.438;2023-01-31T16:27:30;9.50;99.90
11656;DHT22;5884;43.618;1.438;2023-01-31T16:29:59;9.50;99.90
11656;DHT22;5884;43.618;1.438;2023-01-31T16:32:29;9.50;99.90
11656;DHT22;5884;43.618;1.438;2023-01-31T16:35:00;9.50;99.90
11656;DHT22;5884;43.618;1.438;2023-01-31T16:37:34;9.50;99.90
11656;DHT22;5884;43.618;1.438;2023-01-31T16:40:06;9.40;99.90
11656;DHT22;5884;43.618;1.438;2023-01-31T16:42:34;9.40;99.90
11656;DHT22;5884;43.618;1.438;2023-01-31T16:45:27;9.30;99.90
11656;DHT22;5884;43.618;1.438;2023-01-31T16:48:18;9.30;99.90
11656;DHT22;5884;43.618;1.438;2023-01-31T16:50:49;9.30;99.90
11656;DHT22;5884;43.618;1.438;2023-01-31T16:53:28;9.20;99.90
11656;DHT22;5884;43.618;1.438;2023-01-31T16:56:21;9.20;99.90
11656;DHT22;5884;43.618;1.438;2023-01-31T16:58:53;9.20;99.90
11656;DHT22;5884;43.618;1.438;2023-01-31T17:01:26;9.20;99.90
11656;DHT22;5884;43.618;1.438;2023-01-31T17:04:05;9.10;99.90
11656;DHT22;5884;43.618;1.438;2023-01-31T17:06:46;9.10;99.90
11656;DHT22;5884;43.618;1.438;2023-01-31T17:09:19;9.10;99.90
11656;DHT22;5884;43.618;1.438;2023-01-31T17:11:49;9.00;99.90
11656;DHT22;5884;43.618;1.438;2023-01-31T17:14:16;9.00;99.90
11656;DHT22;5884;43.618;1.438;2023-01-31T17:16:43;9.00;99.90
11656;DHT22;5884;43.618;1.438;2023-01-31T17:19:11;9.00;99.90
11656;DHT22;5884;43.618;1.438;2023-01-31T17:21:42;8.90;99.90
11656;DHT22;5884;43.618;1.438;2023-01-31T17:24:12;8.80;99.90
11656;DHT22;5884;43.618;1.438;2023-01-31T17:26:40;8.70;99.90
11656;DHT22;5884;43.618;1.438;2023-01-31T17:29:07;8.60;99.90
11656;DHT22;5884;43.618;1.438;2023-01-31T17:31:35;8.50;99.90
11656;DHT22;5884;43.618;1.438;2023-01-31T17:34:02;8.40;99.90
11656;DHT22;5884;43.618;1.438;2023-01-31T17:36:31;8.30;99.90
11656;DHT22;5884;43.618;1.438;2023-01-31T17:39:00;8.30;99.90
11656;DHT22;5884;43.618;1.438;2023-01-31T17:41:27;8.20;99.90
11656;DHT22;5884;43.618;1.438;2023-01-31T17:43:55;8.20;99.90
11656;DHT22;5884;43.618;1.438;2023-01-31T17:46:22;8.10;99.90
11656;DHT22;5884;43.618;1.438;2023-01-31T17:48:49;8.10;99.90
11656;DHT22;5884;43.618;1.438;2023-01-31T17:51:16;8.00;99.90
11656;DHT22;5884;43.618;1.438;2023-01-31T17:53:44;8.00;99.90
11656;DHT22;5884;43.618;1.438;2023-01-31T17:56:12;8.00;99.90
11656;DHT22;5884;43.618;1.438;2023-01-31T17:58:40;8.00;99.90
11656;DHT22;5884;43.618;1.438;2023-01-31T18:01:07;8.10;99.90
11656;DHT22;5884;43.618;1.438;2023-01-31T18:03:35;8.10;99.90
11656;DHT22;5884;43.618;1.438;2023-01-31T18:06:03;8.10;99.90
11656;DHT22;5884;43.618;1.438;2023-01-31T18:08:32;8.10;99.90
11656;DHT22;5884;43.618;1.438;2023-01-31T18:11:03;8.10;99.90
11656;DHT22;5884;43.618;1.438;2023-01-31T18:13:32;8.10;99.90
11656;DHT22;5884;43.618;1.438;2023-01-31T18:16:01;8.00;99.90
11656;DHT22;5884;43.618;1.438;2023-01-31T18:18:29;8.00;99.90
11656;DHT22;5884;43.618;1.438;2023-01-31T18:20:57;8.00;99.90
11656;DHT22;5884;43.618;1.438;2023-01-31T18:23:24;8.00;99.90
11656;DHT22;5884;43.618;1.438;2023-01-31T18:25:51;8.10;99.90
11656;DHT22;5884;43.618;1.438;2023-01-31T18:28:18;8.10;99.90
11656;DHT22;5884;43.618;1.438;2023-01-31T18:30:47;8.10;99.90
11656;DHT22;5884;43.618;1.438;2023-01-31T18:33:15;8.10;99.90
11656;DHT22;5884;43.618;1.438;2023-01-31T18:35:43;8.10;99.90
11656;DHT22;5884;43.618;1.438;2023-01-31T18:38:10;8.10;99.90
11656;DHT22;5884;43.618;1.438;2023-01-31T18:40:38;8.10;99.90
11656;DHT22;5884;43.618;1.438;2023-01-31T18:43:05;8.10;99.90
11656;DHT22;5884;43.618;1.438;2023-01-31T18:45:33;8.10;99.90
11656;DHT22;5884;43.618;1.438;2023-01-31T18:48:02;8.20;99.90
11656;DHT22;5884;43.618;1.438;2023-01-31T18:50:30;8.20;99.90
11656;DHT22;5884;43.618;1.438;2023-01-31T18:52:57;8.20;99.90
11656;DHT22;5884;43.618;1.438;2023-01-31T18:55:25;8.20;99.90
11656;DHT22;5884;43.618;1.438;2023-01-31T18:57:52;8.20;99.90
11656;DHT22;5884;43.618;1.438;2023-01-31T19:00:20;8.20;99.90
11656;DHT22;5884;43.618;1.438;2023-01-31T19:02:48;8.20;99.90
11656;DHT22;5884;43.618;1.438;2023-01-31T19:05:17;8.20;99.90
11656;DHT22;5884;43.618;1.438;2023-01-31T19:07:45;8.20;99.90
11656;DHT22;5884;43.618;1.438;2023-01-31T19:10:13;8.20;99.90
11656;DHT22;5884;43.618;1.438;2023-01-31T19:12:40;8.20;99.90
11656;DHT22;5884;43.618;1.438;2023-01-31T19:15:09;8.20;99.90
11656;DHT22;5884;43.618;1.438;2023-01-31T19:17:38;8.20;99.90
11656;DHT22;5884;43.618;1.438;2023-01-31T19:20:06;8.20;99.90
11656;DHT22;5884;43.618;1.438;2023-01-31T19:22:35;8.20;99.90
11656;DHT22;5884;43.618;1.438;2023-01-31T19:25:03;8.20;99.90
11656;DHT22;5884;43.618;1.438;2023-01-31T19:27:33;8.20;99.90
11656;DHT22;5884;43.618;1.438;2023-01-31T19:30:00;8.20;99.90
11656;DHT22;5884;43.618;1.438;2023-01-31T19:32:28;8.20;99.90
11656;DHT22;5884;43.618;1.438;2023-01-31T19:34:55;8.20;99.90
11656;DHT22;5884;43.618;1.438;2023-01-31T19:37:23;8.20;99.90
11656;DHT22;5884;43.618;1.438;2023-01-31T19:39:51;8.20;99.90
11656;DHT22;5884;43.618;1.438;2023-01-31T19:42:19;8.20;99.90
11656;DHT22;5884;43.618;1.438;2023-01-31T19:44:46;8.20;99.90
11656;DHT22;5884;43.618;1.438;2023-01-31T19:47:13;8.20;99.90
11656;DHT22;5884;43.618;1.438;2023-01-31T19:49:41;8.20;99.90
11656;DHT22;5884;43.618;1.438;2023-01-31T19:52:08;8.20;99.90
11656;DHT22;5884;43.618;1.438;2023-01-31T19:54:35;8.10;99.90
11656;DHT22;5884;43.618;1.438;2023-01-31T19:57:04;8.10;99.90
11656;DHT22;5884;43.618;1.438;2023-01-31T19:59:32;8.20;99.90
11656;DHT22;5884;43.618;1.438;2023-01-31T20:02:00;8.20;99.90
11656;DHT22;5884;43.618;1.438;2023-01-31T20:04:28;8.30;99.90
11656;DHT22;5884;43.618;1.438;2023-01-31T20:06:56;8.30;99.90
11656;DHT22;5884;43.618;1.438;2023-01-31T20:09:24;8.30;99.90
11656;DHT22;5884;43.618;1.438;2023-01-31T20:11:51;8.20;99.90
11656;DHT22;5884;43.618;1.438;2023-01-31T20:14:20;8.20;99.90
11656;DHT22;5884;43.618;1.438;2023-01-31T20:16:50;8.20;99.90
11656;DHT22;5884;43.618;1.438;2023-01-31T20:19:20;8.10;99.90
11656;DHT22;5884;43.618;1.438;2023-01-31T20:21:48;8.10;99.90
11656;DHT22;5884;43.618;1.438;2023-01-31T20:24:15;8.20;99.90
11656;DHT22;5884;43.618;1.438;2023-01-31T20:26:44;8.20;99.90
11656;DHT22;5884;43.618;1.438;2023-01-31T20:29:14;8.20;99.90
11656;DHT22;5884;43.618;1.438;2023-01-31T20:31:42;8.20;99.90
11656;DHT22;5884;43.618;1.438;2023-01-31T20:34:10;8.20;99.90
11656;DHT22;5884;43.618;1.438;2023-01-31T20:36:39;8.20;99.90
11656;DHT22;5884;43.618;1.438;2023-01-31T20:39:06;8.20;99.90
11656;DHT22;5884;43.618;1.438;2023-01-31T20:41:33;8.30;99.90
11656;DHT22;5884;43.618;1.438;2023-01-31T20:44:01;8.30;99.90
11656;DHT22;5884;43.618;1.438;2023-01-31T20:46:28;8.30;99.90
11656;DHT22;5884;43.618;1.438;2023-01-31T20:48:57;8.30;99.90
11656;DHT22;5884;43.618;1.438;2023-01-31T20:51:25;8.30;99.90
11656;DHT22;5884;43.618;1.438;2023-01-31T20:53:55;8.30;99.90
11656;DHT22;5884;43.618;1.438;2023-01-31T20:56:23;8.20;99.90
11656;DHT22;5884;43.618;1.438;2023-01-31T20:58:51;8.20;99.90
11656;DHT22;5884;43.618;1.438;2023-01-31T21:01:20;8.20;99.90
11656;DHT22;5884;43.618;1.438;2023-01-31T21:03:47;8.20;99.90
11656;DHT22;5884;43.618;1.438;2023-01-31T21:06:17;8.20;99.90
11656;DHT22;5884;43.618;1.438;2023-01-31T21:08:45;8.30;99.90
11656;DHT22;5884;43.618;1.438;2023-01-31T21:11:15;8.30;99.90
11656;DHT22;5884;43.618;1.438;2023-01-31T21:13:43;8.30;99.90
11656;DHT22;5884;43.618;1.438;2023-01-31T21:16:11;8.30;99.90
11656;DHT22;5884;43.618;1.438;2023-01-31T21:18:40;8.20;99.90
11656;DHT22;5884;43.618;1.438;2023-01-31T21:21:10;8.20;99.90
11656;DHT22;5884;43.618;1.438;2023-01-31T21:23:40;8.20;99.90
11656;DHT22;5884;43.618;1.438;2023-01-31T21:26:09;8.30;99.90
11656;DHT22;5884;43.618;1.438;2023-01-31T21:28:37;8.30;99.90
11656;DHT22;5884;43.618;1.438;2023-01-31T21:31:09;8.30;99.90
11656;DHT22;5884;43.618;1.438;2023-01-31T21:33:42;8.20;99.90
11656;DHT22;5884;43.618;1.438;2023-01-31T21:36:11;8.20;99.90
11656;DHT22;5884;43.618;1.438;2023-01-31T21:38:41;8.20;99.90
11656;DHT22;5884;43.618;1.438;2023-01-31T21:41:10;8.20;99.90
11656;DHT22;5884;43.618;1.438;2023-01-31T21:43:55;8.10;99.90
11656;DHT22;5884;43.618;1.438;2023-01-31T21:46:26;8.10;99.90
11656;DHT22;5884;43.618;1.438;2023-01-31T21:48:58;8.20;99.90
11656;DHT22;5884;43.618;1.438;2023-01-31T21:51:26;8.10;99.90
11656;DHT22;5884;43.618;1.438;2023-01-31T21:53:55;8.10;99.90
11656;DHT22;5884;43.618;1.438;2023-01-31T21:56:24;8.10;99.90
11656;DHT22;5884;43.618;1.438;2023-01-31T21:58:53;8.10;99.90
